sensor_id;sensor_type;location;lat;lon;timestamp;pressure;altitude;pressure_sealevel;temperature;humidity
17936;BME280;9093;52.062;4.508;2023-01-31T00:02:26;102813.47;;;6.39;68.81
17936;BME280;9093;52.062;4.508;2023-01-31T00:05:06;102809.06;;;6.40;69.03
17936;BME280;9093;52.062;4.508;2023-01-31T00:07:47;102806.41;;;6.43;69.15
17936;BME280;9093;52.062;4.508;2023-01-31T00:10:27;102809.94;;;6.43;69.21
17936;BME280;9093;52.062;4.508;2023-01-31T00:13:07;102809.91;;;6.46;69.07
17936;BME280;9093;52.062;4.508;2023-01-31T00:15:48;102801.06;;;6.47;69.18
17936;BME280;9093;52.062;4.508;2023-01-31T00:18:29;102797.50;;;6.49;69.41
17936;BME280;9093;52.062;4.508;2023-01-31T00:21:13;102786.91;;;6.47;69.10
17936;BME280;9093;52.062;4.508;2023-01-31T00:23:55;102786.03;;;6.45;69.23
17936;BME280;9093;52.062;4.508;2023-01-31T00:26:35;102778.97;;;6.41;69.10
17936;BME280;9093;52.062;4.508;2023-01-31T00:29:16;102778.13;;;6.37;69.22
17936;BME280;9093;52.062;4.508;2023-01-31T00:31:56;102761.38;;;6.31;69.34
17936;BME280;9093;52.062;4.508;2023-01-31T00:34:36;102755.22;;;6.26;69.00
17936;BME280;9093;52.062;4.508;2023-01-31T00:37:17;102746.41;;;6.19;69.03
17936;BME280;9093;52.062;4.508;2023-01-31T00:39:57;102741.13;;;6.13;68.98
17936;BME280;9093;52.062;4.508;2023-01-31T00:42:37;102742.00;;;6.09;69.07
17936;BME280;9093;52.062;4.508;2023-01-31T00:45:17;102734.97;;;6.02;69.04
17936;BME280;9093;52.062;4.508;2023-01-31T00:47:58;102734.13;;;5.97;69.34
17936;BME280;9093;52.062;4.508;2023-01-31T00:50:38;102728.84;;;5.91;69.09
17936;BME280;9093;52.062;4.508;2023-01-31T00:53:19;102721.78;;;5.87;69.24
17936;BME280;9093;52.062;4.508;2023-01-31T00:56:05;102727.97;;;5.84;69.17
17936;BME280;9093;52.062;4.508;2023-01-31T00:58:47;102718.22;;;5.82;69.20
17936;BME280;9093;52.062;4.508;2023-01-31T01:01:28;102716.50;;;5.78;69.38
17936;BME280;9093;52.062;4.508;2023-01-31T01:04:08;102721.84;;;5.75;69.41
17936;BME280;9093;52.062;4.508;2023-01-31T01:06:48;102714.75;;;5.72;69.36
17936;BME280;9093;52.062;4.508;2023-01-31T01:09:29;102706.81;;;5.69;69.28
17936;BME280;9093;52.062;4.508;2023-01-31T01:12:10;102702.41;;;5.66;69.26
17936;BME280;9093;52.062;4.508;2023-01-31T01:14:50;102705.94;;;5.65;69.63
17936;BME280;9093;52.062;4.508;2023-01-31T01:17:30;102700.69;;;5.62;69.71
17936;BME280;9093;52.062;4.508;2023-01-31T01:20:11;102693.59;;;5.61;69.67
17936;BME280;9093;52.062;4.508;2023-01-31T01:22:51;102686.53;;;5.59;69.47
17936;BME280;9093;52.062;4.508;2023-01-31T01:25:41;102686.53;;;5.57;69.78
17936;BME280;9093;52.062;4.508;2023-01-31T01:28:21;102696.28;;;5.55;69.77
17936;BME280;9093;52.062;4.508;2023-01-31T01:31:05;102692.75;;;5.53;69.87
17936;BME280;9093;52.062;4.508;2023-01-31T01:33:47;102700.66;;;5.56;69.98
17936;BME280;9093;52.062;4.508;2023-01-31T01:36:28;102698.91;;;5.58;69.86
17936;BME280;9093;52.062;4.508;2023-01-31T01:39:11;102701.56;;;5.61;69.88
17936;BME280;9093;52.062;4.508;2023-01-31T01:41:51;102707.72;;;5.66;69.78
17936;BME280;9093;52.062;4.508;2023-01-31T01:44:53;102705.91;;;5.72;70.07
17936;BME280;9093;52.062;4.508;2023-01-31T01:47:38;102704.13;;;5.80;70.13
17936;BME280;9093;52.062;4.508;2023-01-31T01:50:27;102706.75;;;5.84;69.98
17936;BME280;9093;52.062;4.508;2023-01-31T01:53:14;102706.75;;;5.92;70.12
17936;BME280;9093;52.062;4.508;2023-01-31T01:56:17;102708.50;;;5.97;70.22
17936;BME280;9093;52.062;4.508;2023-01-31T01:59:18;102714.66;;;6.05;70.43
17936;BME280;9093;52.062;4.508;2023-01-31T02:02:00;102723.41;;;6.15;70.33
17936;BME280;9093;52.062;4.508;2023-01-31T02:04:42;102711.88;;;6.21;70.38
17936;BME280;9093;52.062;4.508;2023-01-31T02:07:26;102720.72;;;6.26;70.42
17936;BME280;9093;52.062;4.508;2023-01-31T02:10:12;102715.38;;;6.32;70.72
17936;BME280;9093;52.062;4.508;2023-01-31T02:12:55;102708.25;;;6.37;70.95
17936;BME280;9093;52.062;4.508;2023-01-31T02:15:35;102716.19;;;6.41;70.56
17936;BME280;9093;52.062;4.508;2023-01-31T02:18:18;102719.72;;;6.43;70.76
17936;BME280;9093;52.062;4.508;2023-01-31T02:33:22;102701.97;;;6.49;71.15
17936;BME280;9093;52.062;4.508;2023-01-31T02:39:17;102700.16;;;6.54;71.19
17936;BME280;9093;52.062;4.508;2023-01-31T02:51:24;102683.31;;;6.59;71.41
17936;BME280;9093;52.062;4.508;2023-01-31T02:54:12;102680.66;;;6.61;71.64
17936;BME280;9093;52.062;4.508;2023-01-31T02:56:55;102673.56;;;6.63;71.49
17936;BME280;9093;52.062;4.508;2023-01-31T02:59:35;102679.78;;;6.62;71.76
17936;BME280;9093;52.062;4.508;2023-01-31T03:02:16;102681.53;;;6.61;71.61
17936;BME280;9093;52.062;4.508;2023-01-31T03:04:56;102668.28;;;6.60;71.59
17936;BME280;9093;52.062;4.508;2023-01-31T03:07:37;102673.56;;;6.60;71.68
17936;BME280;9093;52.062;4.508;2023-01-31T03:13:40;102658.59;;;6.57;71.86
17936;BME280;9093;52.062;4.508;2023-01-31T03:16:27;102661.22;;;6.57;71.91
17936;BME280;9093;52.062;4.508;2023-01-31T03:20:09;102670.09;;;6.52;71.69
17936;BME280;9093;52.062;4.508;2023-01-31T03:22:57;102671.88;;;6.53;71.91
17936;BME280;9093;52.062;4.508;2023-01-31T03:25:40;102671.88;;;6.53;71.84
17936;BME280;9093;52.062;4.508;2023-01-31T03:28:26;102677.16;;;6.53;71.91
17936;BME280;9093;52.062;4.508;2023-01-31T03:31:19;102671.84;;;6.56;71.92
17936;BME280;9093;52.062;4.508;2023-01-31T03:34:08;102653.22;;;6.60;72.22
17936;BME280;9093;52.062;4.508;2023-01-31T03:37:11;102649.66;;;6.64;71.97
17936;BME280;9093;52.062;4.508;2023-01-31T03:45:41;102632.72;;;6.79;72.23
17936;BME280;9093;52.062;4.508;2023-01-31T03:48:31;102623.81;;;6.83;72.32
17936;BME280;9093;52.062;4.508;2023-01-31T03:51:17;102633.53;;;6.85;72.40
17936;BME280;9093;52.062;4.508;2023-01-31T03:54:02;102631.75;;;6.86;72.45
17936;BME280;9093;52.062;4.508;2023-01-31T03:56:54;102641.44;;;6.90;72.39
17936;BME280;9093;52.062;4.508;2023-01-31T03:59:38;102650.28;;;6.92;72.55
17936;BME280;9093;52.062;4.508;2023-01-31T04:02:23;102652.00;;;6.96;72.37
17936;BME280;9093;52.062;4.508;2023-01-31T04:05:09;102650.19;;;7.01;72.53
17936;BME280;9093;52.062;4.508;2023-01-31T04:07:50;102634.22;;;7.04;72.41
17936;BME280;9093;52.062;4.508;2023-01-31T04:10:30;102636.84;;;7.07;72.61
17936;BME280;9093;52.062;4.508;2023-01-31T04:13:11;102629.72;;;7.11;72.60
17936;BME280;9093;52.062;4.508;2023-01-31T04:15:51;102622.63;;;7.13;72.83
17936;BME280;9093;52.062;4.508;2023-01-31T04:18:31;102629.63;;;7.18;72.82
17936;BME280;9093;52.062;4.508;2023-01-31T04:21:13;102613.66;;;7.21;73.09
17936;BME280;9093;52.062;4.508;2023-01-31T04:23:54;102615.41;;;7.24;73.07
17936;BME280;9093;52.062;4.508;2023-01-31T04:26:35;102618.00;;;7.28;72.99
17936;BME280;9093;52.062;4.508;2023-01-31T04:29:15;102616.22;;;7.31;72.99
17936;BME280;9093;52.062;4.508;2023-01-31T04:31:55;102601.97;;;7.35;72.96
17936;BME280;9093;52.062;4.508;2023-01-31T04:34:36;102594.88;;;7.37;73.10
17936;BME280;9093;52.062;4.508;2023-01-31T04:37:16;102605.47;;;7.40;73.05
17936;BME280;9093;52.062;4.508;2023-01-31T04:39:56;102577.97;;;7.42;72.88
17936;BME280;9093;52.062;4.508;2023-01-31T04:42:36;102582.38;;;7.45;73.07
17936;BME280;9093;52.062;4.508;2023-01-31T04:45:17;102579.66;;;7.46;73.19
17936;BME280;9093;52.062;4.508;2023-01-31T04:47:57;102585.88;;;7.47;73.19
17936;BME280;9093;52.062;4.508;2023-01-31T04:50:37;102585.84;;;7.48;73.00
17936;BME280;9093;52.062;4.508;2023-01-31T04:53:18;102599.13;;;7.50;72.94
17936;BME280;9093;52.062;4.508;2023-01-31T04:55:58;102588.44;;;7.53;73.20
17936;BME280;9093;52.062;4.508;2023-01-31T04:58:39;102573.44;;;7.52;73.32
17936;BME280;9093;52.062;4.508;2023-01-31T05:01:20;102577.78;;;7.54;72.91
17936;BME280;9093;52.062;4.508;2023-01-31T05:04:00;102570.69;;;7.56;73.14
17936;BME280;9093;52.062;4.508;2023-01-31T05:06:41;102571.56;;;7.57;73.10
17936;BME280;9093;52.062;4.508;2023-01-31T05:09:21;102560.03;;;7.58;72.78
17936;BME280;9093;52.062;4.508;2023-01-31T05:12:01;102563.53;;;7.60;73.04
17936;BME280;9093;52.062;4.508;2023-01-31T05:14:42;102562.66;;;7.61;72.94
17936;BME280;9093;52.062;4.508;2023-01-31T05:17:22;102550.22;;;7.63;72.84
17936;BME280;9093;52.062;4.508;2023-01-31T05:20:09;102562.63;;;7.64;72.99
17936;BME280;9093;52.062;4.508;2023-01-31T05:22:49;102568.81;;;7.64;72.91
17936;BME280;9093;52.062;4.508;2023-01-31T05:25:30;102571.44;;;7.66;72.74
17936;BME280;9093;52.062;4.508;2023-01-31T05:28:10;102567.88;;;7.67;72.94
17936;BME280;9093;52.062;4.508;2023-01-31T05:30:51;102565.22;;;7.67;72.86
17936;BME280;9093;52.062;4.508;2023-01-31T05:33:32;102564.41;;;7.62;73.00
17936;BME280;9093;52.062;4.508;2023-01-31T05:36:12;102560.94;;;7.57;73.08
17936;BME280;9093;52.062;4.508;2023-01-31T05:38:53;102552.16;;;7.52;73.08
17936;BME280;9093;52.062;4.508;2023-01-31T05:41:34;102566.34;;;7.51;73.31
17936;BME280;9093;52.062;4.508;2023-01-31T05:44:14;102571.69;;;7.46;73.08
17936;BME280;9093;52.062;4.508;2023-01-31T05:46:55;102577.94;;;7.45;73.00
17936;BME280;9093;52.062;4.508;2023-01-31T05:49:35;102575.31;;;7.44;73.33
17936;BME280;9093;52.062;4.508;2023-01-31T05:52:16;102579.72;;;7.43;73.24
17936;BME280;9093;52.062;4.508;2023-01-31T05:54:56;102584.16;;;7.43;73.51
17936;BME280;9093;52.062;4.508;2023-01-31T05:57:36;102577.97;;;7.44;73.29
17936;BME280;9093;52.062;4.508;2023-01-31T06:00:17;102562.00;;;7.45;73.37
17936;BME280;9093;52.062;4.508;2023-01-31T06:02:58;102561.06;;;7.48;73.13
17936;BME280;9093;52.062;4.508;2023-01-31T06:05:38;102551.28;;;7.50;73.30
17936;BME280;9093;52.062;4.508;2023-01-31T06:08:19;102557.50;;;7.50;73.11
17936;BME280;9093;52.062;4.508;2023-01-31T06:11:01;102572.50;;;7.53;73.27
17936;BME280;9093;52.062;4.508;2023-01-31T06:13:43;102558.31;;;7.54;72.88
17936;BME280;9093;52.062;4.508;2023-01-31T06:16:24;102554.75;;;7.56;73.27
17936;BME280;9093;52.062;4.508;2023-01-31T06:19:04;102559.19;;;7.56;73.20
17936;BME280;9093;52.062;4.508;2023-01-31T06:21:45;102554.72;;;7.58;73.11
17936;BME280;9093;52.062;4.508;2023-01-31T06:24:25;102553.81;;;7.59;73.23
17936;BME280;9093;52.062;4.508;2023-01-31T06:27:05;102552.03;;;7.59;72.82
17936;BME280;9093;52.062;4.508;2023-01-31T06:29:46;102554.72;;;7.58;73.11
17936;BME280;9093;52.062;4.508;2023-01-31T06:32:26;102563.59;;;7.58;73.12
17936;BME280;9093;52.062;4.508;2023-01-31T06:35:06;102557.38;;;7.58;73.26
17936;BME280;9093;52.062;4.508;2023-01-31T06:37:47;102547.66;;;7.57;73.35
17936;BME280;9093;52.062;4.508;2023-01-31T06:40:27;102529.03;;;7.57;73.51
17936;BME280;9093;52.062;4.508;2023-01-31T06:43:08;102532.59;;;7.56;73.50
17936;BME280;9093;52.062;4.508;2023-01-31T06:45:48;102511.41;;;7.51;73.46
17936;BME280;9093;52.062;4.508;2023-01-31T06:48:28;102534.44;;;7.51;73.42
17936;BME280;9093;52.062;4.508;2023-01-31T06:51:09;102524.72;;;7.48;73.77
17936;BME280;9093;52.062;4.508;2023-01-31T06:53:49;102504.41;;;7.46;73.71
17936;BME280;9093;52.062;4.508;2023-01-31T06:56:32;102515.94;;;7.43;74.09
17936;BME280;9093;52.062;4.508;2023-01-31T06:59:12;102515.13;;;7.40;73.82
17936;BME280;9093;52.062;4.508;2023-01-31T07:01:53;102500.03;;;7.40;74.19
17936;BME280;9093;52.062;4.508;2023-01-31T07:04:33;102492.94;;;7.41;73.89
17936;BME280;9093;52.062;4.508;2023-01-31T07:07:13;102476.16;;;7.39;73.97
17936;BME280;9093;52.062;4.508;2023-01-31T07:09:54;102480.59;;;7.38;73.91
17936;BME280;9093;52.062;4.508;2023-01-31T07:12:35;102489.44;;;7.39;74.02
17936;BME280;9093;52.062;4.508;2023-01-31T07:15:16;102483.25;;;7.38;73.99
17936;BME280;9093;52.062;4.508;2023-01-31T07:17:59;102493.88;;;7.40;73.98
17936;BME280;9093;52.062;4.508;2023-01-31T07:20:40;102487.59;;;7.42;73.99
17936;BME280;9093;52.062;4.508;2023-01-31T07:23:20;102476.06;;;7.45;74.18
17936;BME280;9093;52.062;4.508;2023-01-31T07:26:04;102478.72;;;7.45;74.13
17936;BME280;9093;52.062;4.508;2023-01-31T07:28:45;102480.44;;;7.47;73.83
17936;BME280;9093;52.062;4.508;2023-01-31T07:31:25;102465.38;;;7.48;73.89
17936;BME280;9093;52.062;4.508;2023-01-31T07:34:06;102471.56;;;7.50;73.72
17936;BME280;9093;52.062;4.508;2023-01-31T07:36:46;102468.84;;;7.53;73.73
17936;BME280;9093;52.062;4.508;2023-01-31T07:39:27;102470.59;;;7.54;73.70
17936;BME280;9093;52.062;4.508;2023-01-31T07:42:07;102467.94;;;7.55;73.91
17936;BME280;9093;52.062;4.508;2023-01-31T07:44:48;102459.03;;;7.58;74.02
17936;BME280;9093;52.062;4.508;2023-01-31T07:47:28;102449.22;;;7.60;73.96
17936;BME280;9093;52.062;4.508;2023-01-31T07:50:09;102442.13;;;7.62;73.91
17936;BME280;9093;52.062;4.508;2023-01-31T07:52:50;102450.09;;;7.62;74.35
17936;BME280;9093;52.062;4.508;2023-01-31T07:55:30;102445.69;;;7.61;74.11
17936;BME280;9093;52.062;4.508;2023-01-31T07:58:10;102438.59;;;7.60;74.27
17936;BME280;9093;52.062;4.508;2023-01-31T08:00:52;102427.16;;;7.56;74.28
17936;BME280;9093;52.062;4.508;2023-01-31T08:03:51;102448.44;;;7.55;74.23
17936;BME280;9093;52.062;4.508;2023-01-31T08:06:31;102453.75;;;7.55;73.94
17936;BME280;9093;52.062;4.508;2023-01-31T08:09:12;102454.63;;;7.57;73.81
17936;BME280;9093;52.062;4.508;2023-01-31T08:11:53;102455.50;;;7.57;73.99
17936;BME280;9093;52.062;4.508;2023-01-31T08:14:33;102441.31;;;7.57;74.08
17936;BME280;9093;52.062;4.508;2023-01-31T08:17:13;102442.22;;;7.56;73.87
17936;BME280;9093;52.062;4.508;2023-01-31T08:19:54;102432.50;;;7.55;74.12
17936;BME280;9093;52.062;4.508;2023-01-31T08:22:35;102430.78;;;7.52;73.97
17936;BME280;9093;52.062;4.508;2023-01-31T08:25:15;102426.34;;;7.51;73.93
17936;BME280;9093;52.062;4.508;2023-01-31T08:27:56;102415.75;;;7.50;73.98
17936;BME280;9093;52.062;4.508;2023-01-31T08:30:41;102421.06;;;7.48;73.89
17936;BME280;9093;52.062;4.508;2023-01-31T08:33:21;102430.81;;;7.49;73.99
17936;BME280;9093;52.062;4.508;2023-01-31T08:36:17;102426.41;;;7.47;74.03
17936;BME280;9093;52.062;4.508;2023-01-31T08:38:58;102407.78;;;7.48;74.15
17936;BME280;9093;52.062;4.508;2023-01-31T08:41:38;102421.91;;;7.52;74.28
17936;BME280;9093;52.062;4.508;2023-01-31T08:44:19;102431.59;;;7.56;74.08
17936;BME280;9093;52.062;4.508;2023-01-31T08:46:59;102401.38;;;7.60;74.07
17936;BME280;9093;52.062;4.508;2023-01-31T08:49:41;102411.97;;;7.63;74.26
17936;BME280;9093;52.062;4.508;2023-01-31T08:52:21;102410.13;;;7.66;74.32
17936;BME280;9093;52.062;4.508;2023-01-31T08:55:02;102433.16;;;7.69;74.13
17936;BME280;9093;52.062;4.508;2023-01-31T08:57:43;102431.34;;;7.71;74.05
17936;BME280;9093;52.062;4.508;2023-01-31T09:00:25;102443.69;;;7.75;74.17
17936;BME280;9093;52.062;4.508;2023-01-31T09:03:05;102456.00;;;7.79;74.22
17936;BME280;9093;52.062;4.508;2023-01-31T09:05:45;102430.25;;;7.83;74.34
17936;BME280;9093;52.062;4.508;2023-01-31T09:08:26;102426.63;;;7.88;74.20
17936;BME280;9093;52.062;4.508;2023-01-31T09:11:06;102423.88;;;7.93;74.28
17936;BME280;9093;52.062;4.508;2023-01-31T09:13:48;102431.75;;;7.99;74.38
17936;BME280;9093;52.062;4.508;2023-01-31T09:16:31;102416.53;;;8.05;74.55
17936;BME280;9093;52.062;4.508;2023-01-31T09:19:11;102422.63;;;8.14;74.56
17936;BME280;9093;52.062;4.508;2023-01-31T09:21:52;102401.19;;;8.21;74.49
17936;BME280;9093;52.062;4.508;2023-01-31T09:24:32;102385.09;;;8.27;74.55
17936;BME280;9093;52.062;4.508;2023-01-31T09:27:12;102389.38;;;8.36;74.65
17936;BME280;9093;52.062;4.508;2023-01-31T09:29:53;102386.53;;;8.45;74.81
17936;BME280;9093;52.062;4.508;2023-01-31T09:32:34;102380.22;;;8.51;74.73
17936;BME280;9093;52.062;4.508;2023-01-31T09:35:14;102378.34;;;8.54;74.81
17936;BME280;9093;52.062;4.508;2023-01-31T09:37:56;102378.31;;;8.57;74.86
17936;BME280;9093;52.062;4.508;2023-01-31T09:40:38;102407.59;;;8.57;74.69
17936;BME280;9093;52.062;4.508;2023-01-31T09:43:23;102379.22;;;8.56;74.98
17936;BME280;9093;52.062;4.508;2023-01-31T09:46:06;102392.47;;;8.59;74.96
17936;BME280;9093;52.062;4.508;2023-01-31T09:48:54;102392.38;;;8.62;75.04
17936;BME280;9093;52.062;4.508;2023-01-31T09:51:38;102378.09;;;8.66;74.98
17936;BME280;9093;52.062;4.508;2023-01-31T09:54:22;102369.16;;;8.70;74.99
17936;BME280;9093;52.062;4.508;2023-01-31T10:05:51;102393.75;;;8.81;74.85
17936;BME280;9093;52.062;4.508;2023-01-31T10:14:12;102403.34;;;8.90;74.94
17936;BME280;9093;52.062;4.508;2023-01-31T10:17:10;102402.38;;;8.93;75.13
17936;BME280;9093;52.062;4.508;2023-01-31T10:20:20;102405.88;;;8.95;74.94
17936;BME280;9093;52.062;4.508;2023-01-31T10:23:10;102398.75;;;8.97;75.07
17936;BME280;9093;52.062;4.508;2023-01-31T10:25:59;102404.88;;;9.00;75.01
17936;BME280;9093;52.062;4.508;2023-01-31T10:28:48;102384.44;;;9.01;75.02
17936;BME280;9093;52.062;4.508;2023-01-31T10:34:17;102392.38;;;9.04;75.01
17936;BME280;9093;52.062;4.508;2023-01-31T10:37:06;102392.28;;;9.07;74.96
17936;BME280;9093;52.062;4.508;2023-01-31T10:39:53;102376.25;;;9.10;75.05
17936;BME280;9093;52.062;4.508;2023-01-31T10:42:36;102385.03;;;9.13;75.01
17936;BME280;9093;52.062;4.508;2023-01-31T10:45:20;102382.34;;;9.15;74.82
17936;BME280;9093;52.062;4.508;2023-01-31T10:48:19;102373.50;;;9.13;74.97
17936;BME280;9093;52.062;4.508;2023-01-31T10:54:24;102391.16;;;9.17;74.97
17936;BME280;9093;52.062;4.508;2023-01-31T10:57:08;102372.38;;;9.23;74.99
17936;BME280;9093;52.062;4.508;2023-01-31T10:59:49;102390.94;;;9.26;74.90
17936;BME280;9093;52.062;4.508;2023-01-31T11:02:29;102384.63;;;9.30;74.92
17936;BME280;9093;52.062;4.508;2023-01-31T11:05:15;102396.06;;;9.35;74.80
17936;BME280;9093;52.062;4.508;2023-01-31T11:08:00;102394.22;;;9.37;75.09
17936;BME280;9093;52.062;4.508;2023-01-31T11:10:51;102419.06;;;9.39;74.88
17936;BME280;9093;52.062;4.508;2023-01-31T11:13:32;102392.31;;;9.42;74.83
17936;BME280;9093;52.062;4.508;2023-01-31T11:16:13;102402.91;;;9.45;74.82
17936;BME280;9093;52.062;4.508;2023-01-31T11:18:53;102407.34;;;9.46;74.89
17936;BME280;9093;52.062;4.508;2023-01-31T11:21:34;102397.53;;;9.48;74.97
17936;BME280;9093;52.062;4.508;2023-01-31T11:24:23;102411.72;;;9.49;74.74
17936;BME280;9093;52.062;4.508;2023-01-31T11:27:19;102411.78;;;9.47;74.94
17936;BME280;9093;52.062;4.508;2023-01-31T11:30:00;102402.88;;;9.48;74.97
17936;BME280;9093;52.062;4.508;2023-01-31T11:32:43;102398.38;;;9.49;75.14
17936;BME280;9093;52.062;4.508;2023-01-31T11:35:33;102393.94;;;9.49;75.20
17936;BME280;9093;52.062;4.508;2023-01-31T11:40:54;102383.31;;;9.48;75.08
17936;BME280;9093;52.062;4.508;2023-01-31T11:43:34;102392.19;;;9.48;75.11
17936;BME280;9093;52.062;4.508;2023-01-31T11:46:14;102390.38;;;9.49;75.05
17936;BME280;9093;52.062;4.508;2023-01-31T11:48:55;102400.13;;;9.50;74.89
17936;BME280;9093;52.062;4.508;2023-01-31T11:51:37;102384.09;;;9.51;75.07
17936;BME280;9093;52.062;4.508;2023-01-31T11:54:24;102357.38;;;9.54;75.02
17936;BME280;9093;52.062;4.508;2023-01-31T11:57:13;102383.09;;;9.55;75.16
17936;BME280;9093;52.062;4.508;2023-01-31T11:59:56;102374.13;;;9.59;75.39
17936;BME280;9093;52.062;4.508;2023-01-31T12:02:39;102359.88;;;9.60;75.12
17936;BME280;9093;52.062;4.508;2023-01-31T12:05:20;102356.28;;;9.61;75.13
17936;BME280;9093;52.062;4.508;2023-01-31T12:08:01;102365.13;;;9.63;75.27
17936;BME280;9093;52.062;4.508;2023-01-31T12:10:41;102354.47;;;9.63;75.20
17936;BME280;9093;52.062;4.508;2023-01-31T12:13:24;102361.56;;;9.64;75.23
17936;BME280;9093;52.062;4.508;2023-01-31T12:16:05;102352.59;;;9.67;75.08
17936;BME280;9093;52.062;4.508;2023-01-31T12:30:50;102338.69;;;9.88;75.26
17936;BME280;9093;52.062;4.508;2023-01-31T12:46:04;102315.88;;;10.09;75.20
17936;BME280;9093;52.062;4.508;2023-01-31T12:54:51;102316.47;;;10.20;75.31
17936;BME280;9093;52.062;4.508;2023-01-31T12:58:13;102314.63;;;10.22;75.19
17936;BME280;9093;52.062;4.508;2023-01-31T13:04:31;102291.38;;;10.26;75.09
17936;BME280;9093;52.062;4.508;2023-01-31T13:07:23;102328.75;;;10.26;75.04
17936;BME280;9093;52.062;4.508;2023-01-31T13:10:16;102302.97;;;10.25;74.83
17936;BME280;9093;52.062;4.508;2023-01-31T13:13:01;102299.34;;;10.27;74.87
17936;BME280;9093;52.062;4.508;2023-01-31T13:15:48;102299.59;;;10.18;75.16
17936;BME280;9093;52.062;4.508;2023-01-31T13:18:31;102294.16;;;10.23;74.85
17936;BME280;9093;52.062;4.508;2023-01-31T13:21:17;102318.16;;;10.24;74.84
17936;BME280;9093;52.062;4.508;2023-01-31T13:24:02;102309.09;;;10.30;74.64
17936;BME280;9093;52.062;4.508;2023-01-31T13:26:49;102323.13;;;10.36;74.75
17936;BME280;9093;52.062;4.508;2023-01-31T13:29:35;102304.44;;;10.36;74.62
17936;BME280;9093;52.062;4.508;2023-01-31T13:32:34;102306.28;;;10.34;74.57
17936;BME280;9093;52.062;4.508;2023-01-31T13:35:23;102318.72;;;10.35;74.39
17936;BME280;9093;52.062;4.508;2023-01-31T13:38:11;102322.19;;;10.37;74.16
17936;BME280;9093;52.062;4.508;2023-01-31T13:40:55;102315.00;;;10.39;74.16
17936;BME280;9093;52.062;4.508;2023-01-31T13:43:36;102323.88;;;10.41;74.25
17936;BME280;9093;52.062;4.508;2023-01-31T13:46:20;102316.66;;;10.43;74.11
17936;BME280;9093;52.062;4.508;2023-01-31T13:49:06;102318.41;;;10.44;74.25
17936;BME280;9093;52.062;4.508;2023-01-31T13:54:40;102329.09;;;10.44;74.26
17936;BME280;9093;52.062;4.508;2023-01-31T13:57:26;102335.47;;;10.40;74.13
17936;BME280;9093;52.062;4.508;2023-01-31T14:00:43;102347.16;;;10.36;74.20
17936;BME280;9093;52.062;4.508;2023-01-31T14:03:26;102347.06;;;10.39;74.18
17936;BME280;9093;52.062;4.508;2023-01-31T14:06:06;102361.41;;;10.35;73.94
17936;BME280;9093;52.062;4.508;2023-01-31T14:14:11;102350.81;;;10.32;74.22
17936;BME280;9093;52.062;4.508;2023-01-31T14:16:56;102360.69;;;10.30;74.24
17936;BME280;9093;52.062;4.508;2023-01-31T14:22:34;102384.72;;;10.30;73.99
17936;BME280;9093;52.062;4.508;2023-01-31T14:25:14;102378.50;;;10.30;73.84
17936;BME280;9093;52.062;4.508;2023-01-31T14:30:38;102400.72;;;10.30;73.81
17936;BME280;9093;52.062;4.508;2023-01-31T14:33:22;102395.31;;;10.32;73.72
17936;BME280;9093;52.062;4.508;2023-01-31T14:41:46;102400.63;;;10.33;73.67
17936;BME280;9093;52.062;4.508;2023-01-31T14:44:58;102397.13;;;10.31;73.47
17936;BME280;9093;52.062;4.508;2023-01-31T14:53:40;102389.22;;;10.28;73.64
17936;BME280;9093;52.062;4.508;2023-01-31T14:59:36;102396.03;;;10.38;73.58
17936;BME280;9093;52.062;4.508;2023-01-31T15:05:21;102396.75;;;10.43;73.66
17936;BME280;9093;52.062;4.508;2023-01-31T15:11:03;102409.03;;;10.51;73.37
17936;BME280;9093;52.062;4.508;2023-01-31T15:13:48;102407.19;;;10.53;73.63
17936;BME280;9093;52.062;4.508;2023-01-31T15:16:33;102410.59;;;10.58;73.52
17936;BME280;9093;52.062;4.508;2023-01-31T15:19:17;102410.47;;;10.62;73.57
17936;BME280;9093;52.062;4.508;2023-01-31T15:22:05;102422.97;;;10.62;73.41
17936;BME280;9093;52.062;4.508;2023-01-31T15:24:51;102424.66;;;10.64;73.58
17936;BME280;9093;52.062;4.508;2023-01-31T15:27:36;102413.94;;;10.66;73.41
17936;BME280;9093;52.062;4.508;2023-01-31T15:30:22;102419.28;;;10.66;73.39
17936;BME280;9093;52.062;4.508;2023-01-31T15:33:06;102437.97;;;10.66;73.18
17936;BME280;9093;52.062;4.508;2023-01-31T15:36:01;102428.31;;;10.62;73.27
17936;BME280;9093;52.062;4.508;2023-01-31T15:41:36;102419.63;;;10.54;72.65
17936;BME280;9093;52.062;4.508;2023-01-31T15:44:22;102413.47;;;10.52;72.80
17936;BME280;9093;52.062;4.508;2023-01-31T15:47:02;102425.16;;;10.47;72.76
17936;BME280;9093;52.062;4.508;2023-01-31T15:49:43;102435.00;;;10.45;72.51
17936;BME280;9093;52.062;4.508;2023-01-31T15:52:23;102444.00;;;10.43;72.28
17936;BME280;9093;52.062;4.508;2023-01-31T15:55:05;102457.38;;;10.41;72.20
17936;BME280;9093;52.062;4.508;2023-01-31T15:57:50;102454.84;;;10.37;72.48
17936;BME280;9093;52.062;4.508;2023-01-31T16:00:36;102467.38;;;10.33;72.09
17936;BME280;9093;52.062;4.508;2023-01-31T16:03:20;102469.28;;;10.30;72.11
17936;BME280;9093;52.062;4.508;2023-01-31T16:06:01;102469.38;;;10.25;72.17
17936;BME280;9093;52.062;4.508;2023-01-31T16:08:42;102488.16;;;10.22;71.99
17936;BME280;9093;52.062;4.508;2023-01-31T16:11:23;102488.22;;;10.19;72.11
17936;BME280;9093;52.062;4.508;2023-01-31T16:14:05;102487.41;;;10.16;72.15
17936;BME280;9093;52.062;4.508;2023-01-31T16:16:48;102496.31;;;10.15;72.12
17936;BME280;9093;52.062;4.508;2023-01-31T16:19:32;102496.41;;;10.12;72.20
17936;BME280;9093;52.062;4.508;2023-01-31T16:22:27;102479.59;;;10.08;72.39
17936;BME280;9093;52.062;4.508;2023-01-31T16:25:16;102492.06;;;10.06;72.22
17936;BME280;9093;52.062;4.508;2023-01-31T16:27:56;102486.84;;;10.03;72.13
17936;BME280;9093;52.062;4.508;2023-01-31T16:30:41;102486.97;;;9.98;72.42
17936;BME280;9093;52.062;4.508;2023-01-31T16:33:23;102483.50;;;9.93;72.29
17936;BME280;9093;52.062;4.508;2023-01-31T16:36:09;102475.66;;;9.87;72.34
17936;BME280;9093;52.062;4.508;2023-01-31T16:39:02;102495.41;;;9.80;72.32
17936;BME280;9093;52.062;4.508;2023-01-31T16:41:51;102480.41;;;9.75;72.31
17936;BME280;9093;52.062;4.508;2023-01-31T16:44:36;102484.13;;;9.69;72.25
17936;BME280;9093;52.062;4.508;2023-01-31T16:53:31;102474.75;;;9.51;71.90